sensor_id;sensor_type;location;lat;lon;timestamp;P1;durP1;ratioP1;P2;durP2;ratioP2
1523;SDS011;755;53.658;10.118;2022-09-09T00:05:36;129.88;;;42.63;;
1523;SDS011;755;53.658;10.118;2022-09-09T00:15:47;110.78;;;43.20;;
1523;SDS011;755;53.658;10.118;2022-09-09T00:26:03;132.88;;;47.42;;
1523;SDS011;755;53.658;10.118;2022-09-09T00:36:12;129.00;;;44.70;;
1523;SDS011;755;53.658;10.118;2022-09-09T00:46:21;168.10;;;47.70;;
1523;SDS011;755;53.658;10.118;2022-09-09T00:56:46;136.47;;;41.97;;
1523;SDS011;755;53.658;10.118;2022-09-09T01:06:55;131.20;;;39.17;;
1523;SDS011;755;53.658;10.118;2022-09-09T01:17:08;99.88;;;35.70;;
1523;SDS011;755;53.658;10.118;2022-09-09T01:27:16;90.43;;;35.38;;
1523;SDS011;755;53.658;10.118;2022-09-09T01:37:20;69.97;;;32.22;;
1523;SDS011;755;53.658;10.118;2022-09-09T01:47:24;66.00;;;31.00;;
1523;SDS011;755;53.658;10.118;2022-09-09T01:57:27;73.22;;;32.53;;
1523;SDS011;755;53.658;10.118;2022-09-09T02:07:37;72.28;;;32.38;;
1523;SDS011;755;53.658;10.118;2022-09-09T02:17:41;93.50;;;34.50;;
1523;SDS011;755;53.658;10.118;2022-09-09T02:27:45;79.45;;;31.42;;
1523;SDS011;755;53.658;10.118;2022-09-09T02:47:56;69.47;;;30.95;;
1523;SDS011;755;53.658;10.118;2022-09-09T02:58:04;80.40;;;32.40;;
1523;SDS011;755;53.658;10.118;2022-09-09T03:08:12;83.38;;;32.65;;
1523;SDS011;755;53.658;10.118;2022-09-09T03:18:15;73.97;;;31.73;;
1523;SDS011;755;53.658;10.118;2022-09-09T03:28:18;62.35;;;30.83;;
1523;SDS011;755;53.658;10.118;2022-09-09T03:38:20;66.20;;;31.33;;
1523;SDS011;755;53.658;10.118;2022-09-09T03:48:24;77.40;;;32.55;;
1523;SDS011;755;53.658;10.118;2022-09-09T03:58:28;76.65;;;32.45;;
1523;SDS011;755;53.658;10.118;2022-09-09T04:08:31;72.47;;;31.33;;
1523;SDS011;755;53.658;10.118;2022-09-09T04:18:33;64.70;;;31.05;;
1523;SDS011;755;53.658;10.118;2022-09-09T04:28:37;56.47;;;28.20;;
1523;SDS011;755;53.658;10.118;2022-09-09T04:38:39;63.88;;;31.00;;
1523;SDS011;755;53.658;10.118;2022-09-09T04:48:42;60.70;;;29.92;;
1523;SDS011;755;53.658;10.118;2022-09-09T04:58:44;58.85;;;28.83;;
1523;SDS011;755;53.658;10.118;2022-09-09T05:08:48;56.03;;;29.25;;
1523;SDS011;755;53.658;10.118;2022-09-09T05:18:50;45.30;;;24.35;;
1523;SDS011;755;53.658;10.118;2022-09-09T05:28:54;45.53;;;23.67;;
1523;SDS011;755;53.658;10.118;2022-09-09T05:38:57;48.35;;;24.55;;
1523;SDS011;755;53.658;10.118;2022-09-09T05:49:01;43.92;;;24.60;;
1523;SDS011;755;53.658;10.118;2022-09-09T05:59:06;41.90;;;22.75;;
1523;SDS011;755;53.658;10.118;2022-09-09T06:09:10;46.85;;;21.58;;
1523;SDS011;755;53.658;10.118;2022-09-09T06:19:12;40.05;;;20.35;;
1523;SDS011;755;53.658;10.118;2022-09-09T06:29:15;31.92;;;17.20;;
1523;SDS011;755;53.658;10.118;2022-09-09T06:39:17;32.67;;;17.40;;
1523;SDS011;755;53.658;10.118;2022-09-09T06:49:21;33.03;;;16.20;;
1523;SDS011;755;53.658;10.118;2022-09-09T06:59:23;26.13;;;14.65;;
1523;SDS011;755;53.658;10.118;2022-09-09T07:09:27;26.25;;;15.35;;
1523;SDS011;755;53.658;10.118;2022-09-09T07:19:31;25.88;;;14.35;;
1523;SDS011;755;53.658;10.118;2022-09-09T07:29:35;24.48;;;15.65;;
1523;SDS011;755;53.658;10.118;2022-09-09T07:39:37;23.40;;;14.25;;
1523;SDS011;755;53.658;10.118;2022-09-09T07:49:41;33.47;;;16.55;;
1523;SDS011;755;53.658;10.118;2022-09-09T07:59:43;20.90;;;13.80;;
1523;SDS011;755;53.658;10.118;2022-09-09T08:09:46;22.83;;;12.68;;
1523;SDS011;755;53.658;10.118;2022-09-09T08:19:49;21.38;;;10.93;;
1523;SDS011;755;53.658;10.118;2022-09-09T08:29:52;19.05;;;10.20;;
1523;SDS011;755;53.658;10.118;2022-09-09T08:39:55;14.68;;;8.18;;
1523;SDS011;755;53.658;10.118;2022-09-09T08:50:01;18.50;;;6.70;;
1523;SDS011;755;53.658;10.118;2022-09-09T09:00:13;8.23;;;5.57;;
1523;SDS011;755;53.658;10.118;2022-09-09T09:10:19;15.27;;;4.65;;
1523;SDS011;755;53.658;10.118;2022-09-09T09:20:27;9.00;;;5.22;;
1523;SDS011;755;53.658;10.118;2022-09-09T09:30:38;20.77;;;5.38;;
1523;SDS011;755;53.658;10.118;2022-09-09T09:40:50;13.02;;;4.28;;
1523;SDS011;755;53.658;10.118;2022-09-09T09:50:55;9.00;;;3.63;;
1523;SDS011;755;53.658;10.118;2022-09-09T10:00:59;14.57;;;6.68;;
1523;SDS011;755;53.658;10.118;2022-09-09T10:11:04;11.35;;;2.90;;
1523;SDS011;755;53.658;10.118;2022-09-09T10:21:43;10.57;;;3.25;;
1523;SDS011;755;53.658;10.118;2022-09-09T10:32:02;7.20;;;1.70;;
1523;SDS011;755;53.658;10.118;2022-09-09T10:42:14;7.68;;;2.50;;
1523;SDS011;755;53.658;10.118;2022-09-09T10:52:20;4.85;;;1.60;;
1523;SDS011;755;53.658;10.118;2022-09-09T11:02:28;6.70;;;1.40;;
1523;SDS011;755;53.658;10.118;2022-09-09T11:12:33;3.83;;;1.20;;
1523;SDS011;755;53.658;10.118;2022-09-09T11:22:39;2.60;;;1.00;;
1523;SDS011;755;53.658;10.118;2022-09-09T11:33:06;5.63;;;1.15;;
1523;SDS011;755;53.658;10.118;2022-09-09T11:43:29;5.15;;;0.95;;
1523;SDS011;755;53.658;10.118;2022-09-09T11:53:35;7.97;;;2.10;;
1523;SDS011;755;53.658;10.118;2022-09-09T12:03:49;5.32;;;1.52;;
1523;SDS011;755;53.658;10.118;2022-09-09T12:13:58;5.78;;;1.13;;
1523;SDS011;755;53.658;10.118;2022-09-09T12:24:02;9.18;;;1.25;;
1523;SDS011;755;53.658;10.118;2022-09-09T12:34:11;8.70;;;1.02;;
1523;SDS011;755;53.658;10.118;2022-09-09T12:44:17;4.07;;;1.50;;
1523;SDS011;755;53.658;10.118;2022-09-09T12:54:21;5.10;;;0.93;;
1523;SDS011;755;53.658;10.118;2022-09-09T13:04:23;4.22;;;1.58;;
1523;SDS011;755;53.658;10.118;2022-09-09T13:14:27;5.40;;;1.83;;
1523;SDS011;755;53.658;10.118;2022-09-09T13:24:34;6.53;;;1.65;;
1523;SDS011;755;53.658;10.118;2022-09-09T13:34:38;5.65;;;1.85;;
1523;SDS011;755;53.658;10.118;2022-09-09T13:44:40;5.10;;;1.50;;
1523;SDS011;755;53.658;10.118;2022-09-09T13:54:46;7.50;;;2.60;;
1523;SDS011;755;53.658;10.118;2022-09-09T14:04:48;6.88;;;1.95;;
1523;SDS011;755;53.658;10.118;2022-09-09T14:14:56;9.63;;;3.22;;
1523;SDS011;755;53.658;10.118;2022-09-09T14:24:59;6.70;;;2.80;;
1523;SDS011;755;53.658;10.118;2022-09-09T14:35:03;6.32;;;3.03;;
1523;SDS011;755;53.658;10.118;2022-09-09T14:45:06;14.13;;;4.03;;
1523;SDS011;755;53.658;10.118;2022-09-09T14:55:09;9.98;;;3.90;;
1523;SDS011;755;53.658;10.118;2022-09-09T15:05:11;8.85;;;2.90;;
1523;SDS011;755;53.658;10.118;2022-09-09T15:15:17;14.98;;;2.70;;
1523;SDS011;755;53.658;10.118;2022-09-09T15:25:20;11.25;;;3.13;;
1523;SDS011;755;53.658;10.118;2022-09-09T15:35:23;9.13;;;3.03;;
1523;SDS011;755;53.658;10.118;2022-09-09T15:45:25;8.02;;;2.80;;
1523;SDS011;755;53.658;10.118;2022-09-09T15:55:29;8.00;;;1.98;;
1523;SDS011;755;53.658;10.118;2022-09-09T16:05:32;5.05;;;2.15;;
1523;SDS011;755;53.658;10.118;2022-09-09T16:15:36;6.97;;;2.40;;
1523;SDS011;755;53.658;10.118;2022-09-09T16:25:38;7.45;;;3.17;;
1523;SDS011;755;53.658;10.118;2022-09-09T16:35:41;10.38;;;4.05;;
1523;SDS011;755;53.658;10.118;2022-09-09T16:45:44;11.18;;;3.63;;
1523;SDS011;755;53.658;10.118;2022-09-09T16:55:48;4.32;;;2.72;;
1523;SDS011;755;53.658;10.118;2022-09-09T17:05:50;7.10;;;2.67;;
1523;SDS011;755;53.658;10.118;2022-09-09T17:15:54;10.60;;;2.30;;
1523;SDS011;755;53.658;10.118;2022-09-09T17:25:56;47.22;;;20.40;;
1523;SDS011;755;53.658;10.118;2022-09-09T17:36:00;5.22;;;2.67;;
1523;SDS011;755;53.658;10.118;2022-09-09T17:46:07;6.28;;;2.42;;
1523;SDS011;755;53.658;10.118;2022-09-09T17:56:12;4.37;;;2.23;;
1523;SDS011;755;53.658;10.118;2022-09-09T18:06:16;4.40;;;2.10;;
1523;SDS011;755;53.658;10.118;2022-09-09T18:16:22;5.80;;;2.25;;
1523;SDS011;755;53.658;10.118;2022-09-09T18:26:25;5.05;;;2.50;;
1523;SDS011;755;53.658;10.118;2022-09-09T18:36:29;4.10;;;2.35;;
1523;SDS011;755;53.658;10.118;2022-09-09T18:46:35;3.28;;;2.40;;
1523;SDS011;755;53.658;10.118;2022-09-09T18:56:40;2.50;;;2.22;;
1523;SDS011;755;53.658;10.118;2022-09-09T19:06:43;6.35;;;2.72;;
1523;SDS011;755;53.658;10.118;2022-09-09T19:16:48;7.88;;;3.10;;
1523;SDS011;755;53.658;10.118;2022-09-09T19:26:51;7.00;;;3.33;;
1523;SDS011;755;53.658;10.118;2022-09-09T19:36:56;10.50;;;4.03;;
1523;SDS011;755;53.658;10.118;2022-09-09T19:46:59;10.15;;;3.83;;
1523;SDS011;755;53.658;10.118;2022-09-09T19:57:03;8.82;;;4.30;;
1523;SDS011;755;53.658;10.118;2022-09-09T20:07:05;13.75;;;4.38;;
1523;SDS011;755;53.658;10.118;2022-09-09T20:17:09;5.93;;;4.32;;
1523;SDS011;755;53.658;10.118;2022-09-09T20:27:11;10.38;;;4.53;;
1523;SDS011;755;53.658;10.118;2022-09-09T20:37:14;7.15;;;4.45;;
1523;SDS011;755;53.658;10.118;2022-09-09T20:47:17;8.82;;;4.05;;
1523;SDS011;755;53.658;10.118;2022-09-09T20:57:21;7.03;;;4.65;;
1523;SDS011;755;53.658;10.118;2022-09-09T21:07:23;8.02;;;4.43;;
1523;SDS011;755;53.658;10.118;2022-09-09T21:17:27;8.10;;;4.00;;
1523;SDS011;755;53.658;10.118;2022-09-09T21:27:29;6.88;;;3.78;;
1523;SDS011;755;53.658;10.118;2022-09-09T21:37:32;6.82;;;3.45;;
1523;SDS011;755;53.658;10.118;2022-09-09T21:47:34;9.57;;;3.40;;
1523;SDS011;755;53.658;10.118;2022-09-09T21:57:38;13.35;;;3.13;;
1523;SDS011;755;53.658;10.118;2022-09-09T22:07:39;15.63;;;3.33;;
1523;SDS011;755;53.658;10.118;2022-09-09T22:17:43;5.97;;;3.42;;
1523;SDS011;755;53.658;10.118;2022-09-09T22:27:46;6.38;;;3.28;;
1523;SDS011;755;53.658;10.118;2022-09-09T22:37:49;7.30;;;4.18;;
1523;SDS011;755;53.658;10.118;2022-09-09T22:47:52;4.68;;;3.97;;
1523;SDS011;755;53.658;10.118;2022-09-09T22:57:59;6.20;;;4.40;;
1523;SDS011;755;53.658;10.118;2022-09-09T23:08:02;7.20;;;3.97;;
1523;SDS011;755;53.658;10.118;2022-09-09T23:18:10;8.40;;;3.60;;
1523;SDS011;755;53.658;10.118;2022-09-09T23:28:14;6.38;;;3.33;;
1523;SDS011;755;53.658;10.118;2022-09-09T23:38:18;4.45;;;3.40;;
1523;SDS011;755;53.658;10.118;2022-09-09T23:48:20;7.28;;;3.58;;
1523;SDS011;755;53.658;10.118;2022-09-09T23:58:24;12.07;;;3.72;;
